Terminal Aerodrome Forecast
Issued by NWS Buffalo, NY

Home | Current Version | Previous Version | Text Only | Print | Product List | Glossary On
Versions: 1 2 3 4 5 6 7 8 9 10 11 12 13 14 15 16 17 18 19 20 21 22 23 24 25 26 27 28
000
FTUS41 KBUF 290309 AAA
TAFROC
TAF AMD
KROC 290309Z 2903/2924 19008KT P6SM FEW110 OVC200
     FM290600 17007KT P6SM VCSH OVC060
     FM290700 19007KT 6SM -SHRA OVC035
     FM291000 18007KT P6SM OVC020
     FM291400 24010G16KT P6SM BKN015
     FM291600 26012G18KT P6SM SCT250=

USA.gov is the U.S. government's official web portal to all federal, state and local government web resources and services.